Time;durP1;ratioP1;P1;durP2;ratioP2;P2;SDS_P1;SDS_P2;PMS_P1;PMS_P2;Temp;Humidity;BMP_temperature;BMP_pressure;BME280_temperature;BME280_humidity;BME280_pressure;Samples;Min_cycle;Max_cycle;Signal;HPM_P1;HPM_P2
2022/05/03 00:01:36;;;;;;;1.95;1.30;;;16.10;55.00;;;;;;5093916;28;20055;-72
2022/05/03 00:04:06;;;;;;;1.42;1.20;;;15.70;54.90;;;;;;5094373;28;20381;-72
2022/05/03 00:06:44;;;;;;;1.42;1.17;;;16.70;55.50;;;;;;5091137;28;20058;-72
2022/05/03 00:09:13;;;;;;;1.55;1.10;;;16.50;55.30;;;;;;5092818;28;20053;-72
2022/05/03 00:11:42;;;;;;;1.25;1.15;;;16.60;55.70;;;;;;5126492;27;20085;-71
2022/05/03 00:14:13;;;;;;;1.48;1.08;;;16.20;55.30;;;;;;5093803;28;20190;-72
2022/05/03 00:16:40;;;;;;;1.25;1.15;;;16.10;55.40;;;;;;5093664;28;20052;-72
2022/05/03 00:19:07;;;;;;;1.10;1.00;;;16.70;55.40;;;;;;5092323;28;20506;-72
2022/05/03 00:21:35;;;;;;;1.52;1.13;;;16.50;55.60;;;;;;5090852;28;20082;-73
2022/05/03 00:24:01;;;;;;;1.75;1.17;;;16.70;55.60;;;;;;5089197;28;20382;-72
2022/05/03 00:26:30;;;;;;;1.73;1.15;;;16.60;55.50;;;;;;5073332;28;20086;-72
2022/05/03 00:28:57;;;;;;;1.35;1.10;;;16.00;55.30;;;;;;5072205;28;20140;-72
2022/05/03 00:31:24;;;;;;;1.25;1.10;;;16.50;49.30;;;;;;5072908;28;20052;-72
2022/05/03 00:33:50;;;;;;;1.38;1.10;;;16.60;55.40;;;;;;5071822;28;20071;-71
2022/05/03 00:36:17;;;;;;;1.30;1.17;;;16.20;55.50;;;;;;5071702;28;20075;-72
2022/05/03 00:38:44;;;;;;;1.55;1.20;;;16.50;51.20;;;;;;5072585;28;20045;-72
2022/05/03 00:41:12;;;;;;;1.48;1.15;;;16.50;55.60;;;;;;5071611;28;20059;-72
2022/05/03 00:43:44;;;;;;;1.73;1.20;;;15.80;55.10;;;;;;5073193;28;20059;-72
2022/05/03 00:46:13;;;;;;;1.08;1.00;;;16.40;55.70;;;;;;5071733;28;20052;-72
2022/05/03 00:48:49;;;;;;;1.55;1.20;;;15.90;55.00;;;;;;5071625;28;20056;-72
2022/05/03 00:51:17;;;;;;;1.73;1.20;;;16.50;55.50;;;;;;5071029;28;20055;-72
2022/05/03 00:53:51;;;;;;;1.45;1.05;;;16.40;49.40;;;;;;5073009;28;20389;-72
2022/05/03 00:56:31;;;;;;;2.20;1.53;;;16.40;55.90;;;;;;5071485;28;20062;-72
2022/05/03 00:59:01;;;;;;;1.88;1.20;;;16.40;55.80;;;;;;5071294;28;20049;-72
2022/05/03 01:01:33;;;;;;;1.20;1.10;;;16.00;55.60;;;;;;5071319;28;20056;-72
2022/05/03 01:04:07;;;;;;;1.95;1.20;;;16.40;55.80;;;;;;5071593;28;20064;-72
2022/05/03 01:06:36;;;;;;;1.42;1.20;;;16.50;55.90;;;;;;5071290;28;20076;-72
2022/05/03 01:09:05;;;;;;;1.50;1.20;;;16.00;55.30;;;;;;5071219;28;20044;-73
2022/05/03 01:11:38;;;;;;;1.65;1.25;;;16.40;55.80;;;;;;5106172;28;20087;-71
2022/05/03 01:14:14;;;;;;;1.58;1.17;;;16.30;55.60;;;;;;5071158;28;20052;-73
2022/05/03 01:16:45;;;;;;;2.75;1.20;;;17.00;56.30;;;;;;5071333;28;20064;-72
2022/05/03 01:19:24;;;;;;;2.03;1.25;;;16.10;55.40;;;;;;5070934;28;20049;-72
2022/05/03 01:22:04;;;;;;;1.52;1.20;;;16.30;55.60;;;;;;5105087;28;20052;-72
2022/05/03 01:24:33;;;;;;;1.35;1.15;;;17.10;55.90;;;;;;5070965;28;20394;-72
2022/05/03 01:27:20;;;;;;;1.30;1.20;;;16.20;55.50;;;;;;5073225;28;20047;-73
2022/05/03 01:29:48;;;;;;;1.85;1.40;;;16.10;55.50;;;;;;5070983;28;20127;-72
2022/05/03 01:32:14;;;;;;;1.50;1.30;;;16.20;54.10;;;;;;5070982;28;20409;-72
2022/05/03 01:34:41;;;;;;;1.38;1.20;;;15.60;55.30;;;;;;5071749;28;20048;-72
2022/05/03 01:37:33;;;;;;;1.40;1.30;;;16.30;55.80;;;;;;5070594;28;20131;-72
2022/05/03 01:40:05;;;;;;;1.75;1.30;;;16.20;55.70;;;;;;5065487;28;20060;-71
2022/05/03 01:42:45;;;;;;;1.45;1.17;;;15.70;55.30;;;;;;5073285;28;20043;-72
2022/05/03 01:45:13;;;;;;;1.52;1.25;;;16.00;55.50;;;;;;5070974;28;20057;-72
2022/05/03 01:47:45;;;;;;;1.30;1.20;;;16.30;55.80;;;;;;5070550;28;20078;-72
2022/05/03 01:50:18;;;;;;;1.58;1.30;;;15.80;55.50;;;;;;5069885;28;20056;-72
2022/05/03 01:53:01;;;;;;;1.58;1.30;;;16.20;55.50;;;;;;5070526;28;20106;-72
2022/05/03 01:55:52;;;;;;;1.30;1.20;;;16.20;55.80;;;;;;5071954;28;20404;-72
2022/05/03 01:58:21;;;;;;;1.33;1.20;;;15.70;55.60;;;;;;5069676;28;20101;-73
2022/05/03 02:00:54;;;;;;;1.80;1.33;;;16.30;55.50;;;;;;5071579;28;20045;-73
2022/05/03 02:03:27;;;;;;;2.38;1.40;;;16.30;52.40;;;;;;5070750;28;20408;-72
2022/05/03 02:05:58;;;;;;;2.10;1.40;;;16.10;55.60;;;;;;5070290;28;20060;-72
2022/05/03 02:08:25;;;;;;;2.13;1.50;;;16.10;55.80;;;;;;5070385;28;20420;-72
2022/05/03 02:11:03;;;;;;;2.65;1.20;;;16.00;55.70;;;;;;5070325;28;20139;-72
2022/05/03 02:16:49;;;;;;;1.60;1.30;;;16.10;56.00;;;;;;5070005;28;20510;-72
2022/05/03 02:19:24;;;;;;;1.50;1.40;;;16.00;49.40;;;;;;5104064;28;20404;-72
2022/05/03 02:21:52;;;;;;;1.65;1.33;;;15.90;55.70;;;;;;5104240;28;20067;-72
2022/05/03 02:24:23;;;;;;;1.50;1.40;;;15.60;55.30;;;;;;5104316;28;20106;-73
2022/05/03 02:26:51;;;;;;;2.20;1.70;;;15.50;55.30;;;;;;5070473;28;20056;-72
2022/05/03 02:29:20;;;;;;;2.10;1.60;;;16.00;55.90;;;;;;5070188;28;20138;-72
2022/05/03 02:31:50;;;;;;;2.30;1.40;;;15.90;55.60;;;;;;5118270;28;20135;-72
2022/05/03 02:34:25;;;;;;;1.83;1.60;;;16.20;55.90;;;;;;5090486;28;20117;-73
2022/05/03 02:36:56;;;;;;;2.03;1.63;;;15.90;55.60;;;;;;5090628;28;20056;-72
2022/05/03 02:39:27;;;;;;;1.77;1.60;;;15.60;55.60;;;;;;5090015;28;20049;-69
2022/05/03 02:41:54;;;;;;;2.33;1.60;;;;;;;;;;5090501;28;20054;-72
2022/05/03 02:44:21;;;;;;;1.70;1.48;;;15.50;53.50;;;;;;5090162;28;20526;-73
2022/05/03 02:46:57;;;;;;;2.40;1.90;;;15.20;55.20;;;;;;5088536;28;20060;-72
2022/05/03 02:49:29;;;;;;;2.00;1.60;;;16.00;55.70;;;;;;5091351;28;20056;-72
2022/05/03 02:52:00;;;;;;;2.05;1.70;;;15.80;55.50;;;;;;5091648;28;20101;-72
2022/05/03 02:54:34;;;;;;;2.47;1.70;;;16.10;55.70;;;;;;5113057;28;20055;-73
2022/05/03 02:57:06;;;;;;;2.10;1.60;;;15.80;56.30;;;;;;5070085;28;20060;-72
2022/05/03 03:02:23;;;;;;;1.95;1.50;;;16.00;56.10;;;;;;5072548;28;20052;-72
2022/05/03 03:04:53;;;;;;;2.20;1.80;;;16.00;55.70;;;;;;5075033;28;20059;-73
2022/05/03 03:07:20;;;;;;;1.88;1.65;;;;;;;;;;5074877;28;20071;-72
2022/05/03 03:09:49;;;;;;;2.22;1.70;;;15.80;55.80;;;;;;5073161;28;20052;-72
2022/05/03 03:12:23;;;;;;;3.10;1.77;;;15.80;54.20;;;;;;5075037;28;20052;-72
2022/05/03 03:14:49;;;;;;;2.20;1.88;;;15.50;55.60;;;;;;5073837;28;20135;-72
2022/05/03 03:17:21;;;;;;;2.38;1.70;;;16.70;56.40;;;;;;5073690;28;20048;-72
2022/05/03 03:20:14;;;;;;;2.42;1.73;;;15.90;55.90;;;;;;5074524;28;20072;-72
2022/05/03 03:22:42;;;;;;;1.90;1.63;;;15.50;55.60;;;;;;5073474;28;20071;-72
2022/05/03 03:25:10;;;;;;;2.13;1.77;;;15.90;55.70;;;;;;5107375;28;20488;-71
2022/05/03 03:27:37;;;;;;;2.33;1.88;;;15.80;55.70;;;;;;5098470;28;20693;-71
2022/05/03 03:30:06;;;;;;;2.28;1.63;;;15.80;55.90;;;;;;5103965;28;20130;-71
2022/05/03 03:32:36;;;;;;;2.15;1.52;;;15.70;55.80;;;;;;5103757;28;20048;-71
2022/05/03 03:35:02;;;;;;;2.15;1.60;;;15.50;55.90;;;;;;5099289;28;20043;-71
2022/05/03 03:37:30;;;;;;;1.90;1.65;;;15.70;55.60;;;;;;5123984;27;20051;-71
2022/05/03 03:39:57;;;;;;;1.85;1.52;;;15.20;55.50;;;;;;5103969;28;20055;-70
2022/05/03 03:42:24;;;;;;;2.00;1.58;;;15.70;55.90;;;;;;5102548;28;20134;-71
2022/05/03 03:44:51;;;;;;;2.45;1.70;;;15.80;55.90;;;;;;5105886;28;20134;-71
2022/05/03 03:47:18;;;;;;;1.98;1.67;;;15.70;56.00;;;;;;5098531;28;20054;-71
2022/05/03 03:49:46;;;;;;;2.22;1.80;;;15.70;55.60;;;;;;5102336;28;20493;-71
2022/05/03 03:52:14;;;;;;;2.30;1.67;;;15.30;55.40;;;;;;5099901;28;20135;-71
2022/05/03 03:54:41;;;;;;;1.80;1.55;;;15.20;55.60;;;;;;5101796;28;20048;-71
2022/05/03 03:57:08;;;;;;;2.30;1.70;;;15.70;56.00;;;;;;5101156;28;20543;-71
2022/05/03 03:59:34;;;;;;;2.67;1.85;;;15.50;56.00;;;;;;5101699;28;20047;-71
2022/05/03 04:02:01;;;;;;;2.42;1.95;;;15.60;55.80;;;;;;5099159;28;20051;-71
2022/05/03 04:04:30;;;;;;;2.10;1.63;;;15.70;49.40;;;;;;5102985;28;20074;-72
2022/05/03 04:06:58;;;;;;;1.95;1.67;;;15.60;55.70;;;;;;5103832;28;20051;-71
2022/05/03 04:09:25;;;;;;;6.38;2.17;;;15.20;55.80;;;;;;5106193;28;20150;-71
2022/05/03 04:11:52;;;;;;;2.20;1.70;;;15.30;55.90;;;;;;5112581;28;20056;-71
2022/05/03 04:14:18;;;;;;;2.00;1.73;;;15.60;56.10;;;;;;5114116;28;20476;-71
2022/05/03 04:16:45;;;;;;;2.50;1.70;;;15.60;55.70;;;;;;5113216;28;20051;-71
2022/05/03 04:19:13;;;;;;;1.75;1.52;;;;;;;;;;5112801;28;20056;-72
2022/05/03 04:21:40;;;;;;;3.20;1.90;;;15.70;56.10;;;;;;5112815;28;20074;-71
2022/05/03 04:24:08;;;;;;;2.38;1.80;;;15.60;56.00;;;;;;5105670;28;20045;-72
2022/05/03 04:26:35;;;;;;;2.60;1.92;;;15.40;55.70;;;;;;5106003;28;20516;-71
2022/05/03 04:29:02;;;;;;;2.25;1.73;;;15.80;56.00;;;;;;5072277;28;20062;-71
2022/05/03 04:31:29;;;;;;;2.47;1.70;;;15.30;55.80;;;;;;5071567;28;20158;-72
2022/05/03 04:33:56;;;;;;;2.00;1.60;;;15.60;56.00;;;;;;5072047;28;20404;-71
2022/05/03 04:36:22;;;;;;;2.30;1.70;;;15.50;56.00;;;;;;5087675;28;20066;-71
2022/05/03 04:38:49;;;;;;;2.92;1.90;;;15.60;53.60;;;;;;5126311;27;20062;-71
2022/05/03 04:41:17;;;;;;;1.67;1.45;;;15.60;55.70;;;;;;5091877;28;20054;-70
2022/05/03 04:43:44;;;;;;;2.30;1.75;;;15.60;56.10;;;;;;5091688;28;20056;-69
2022/05/03 04:46:11;;;;;;;2.00;1.80;;;15.70;56.00;;;;;;5092290;28;20134;-69
2022/05/03 04:48:37;;;;;;;1.92;1.58;;;15.00;55.50;;;;;;5087233;28;20045;-69
2022/05/03 04:51:04;;;;;;;1.85;1.60;;;15.60;55.90;;;;;;5071814;28;20066;-69
2022/05/03 04:53:32;;;;;;;2.10;1.80;;;15.70;56.10;;;;;;5071868;28;20222;-68
2022/05/03 04:55:58;;;;;;;1.90;1.70;;;15.60;55.80;;;;;;5071687;28;20052;-69
2022/05/03 04:58:26;;;;;;;2.42;1.70;;;15.60;49.40;;;;;;5071648;28;20055;-70
2022/05/03 05:00:53;;;;;;;2.10;1.67;;;;;;;;;;5072698;28;20398;-71
2022/05/03 05:03:20;;;;;;;2.22;1.48;;;15.40;55.90;;;;;;5071732;28;20482;-69
2022/05/03 05:05:47;;;;;;;2.58;1.63;;;15.60;55.90;;;;;;5085014;28;20040;-68
2022/05/03 05:08:14;;;;;;;2.03;1.80;;;;;;;;;;5091690;28;20051;-72
2022/05/03 05:10:40;;;;;;;2.28;1.75;;;15.60;56.00;;;;;;5090084;28;20062;-69
2022/05/03 05:13:07;;;;;;;2.00;1.70;;;15.50;55.80;;;;;;5091640;28;20058;-69
2022/05/03 05:15:35;;;;;;;1.88;1.60;;;15.60;49.40;;;;;;5091574;28;20067;-70
2022/05/03 05:18:02;;;;;;;2.05;1.50;;;;;;;;;;5125077;27;20051;-69
2022/05/03 05:20:29;;;;;;;2.70;1.85;;;15.60;56.00;;;;;;5090799;28;20042;-69
2022/05/03 05:22:56;;;;;;;2.13;1.55;;;15.60;56.10;;;;;;5091284;28;20126;-70
2022/05/03 05:25:22;;;;;;;1.77;1.50;;;15.70;51.80;;;;;;5092436;28;20058;-69
2022/05/03 05:27:49;;;;;;;2.20;1.75;;;15.60;55.90;;;;;;5091111;28;20412;-69
2022/05/03 05:30:16;;;;;;;1.83;1.52;;;15.60;56.00;;;;;;5091103;28;20200;-69
2022/05/03 05:32:44;;;;;;;2.05;1.80;;;15.60;55.70;;;;;;5092238;28;20047;-69
2022/05/03 05:35:12;;;;;;;2.72;1.80;;;;;;;;;;5091250;28;20097;-70
2022/05/03 05:37:38;;;;;;;2.22;1.75;;;15.60;55.70;;;;;;5089536;28;20135;-70
2022/05/03 05:40:06;;;;;;;1.58;1.40;;;15.70;50.20;;;;;;5090521;28;20472;-69
2022/05/03 05:42:33;;;;;;;1.83;1.52;;;15.60;55.60;;;;;;5125468;27;20060;-68
2022/05/03 05:45:00;;;;;;;1.92;1.73;;;15.70;55.80;;;;;;5091007;28;20404;-70
2022/05/03 05:47:27;;;;;;;2.25;1.65;;;;;;;;;;5090814;28;20047;-70
2022/05/03 05:49:55;;;;;;;2.33;1.70;;;15.80;56.00;;;;;;5091725;28;20511;-70
2022/05/03 05:55:07;;;;;;;2.00;1.70;;;15.70;56.00;;;;;;5104804;28;20060;-70
2022/05/03 05:57:34;;;;;;;2.88;2.00;;;15.80;56.00;;;;;;5104497;28;20056;-70
2022/05/03 06:00:01;;;;;;;2.53;1.70;;;15.70;56.00;;;;;;5070295;28;20550;-70
2022/05/03 06:02:28;;;;;;;2.15;1.70;;;15.70;55.70;;;;;;5070365;28;20059;-70
2022/05/03 06:04:56;;;;;;;2.58;1.88;;;15.60;55.80;;;;;;5075247;28;20064;-70
2022/05/03 06:07:23;;;;;;;2.72;2.00;;;15.40;55.70;;;;;;5091847;28;20052;-70
2022/05/03 06:09:50;;;;;;;2.60;1.85;;;15.60;56.00;;;;;;5089779;28;20485;-70
2022/05/03 06:12:17;;;;;;;2.70;1.90;;;15.70;56.00;;;;;;5091904;28;20106;-70
2022/05/03 06:14:44;;;;;;;2.13;1.77;;;15.80;56.10;;;;;;5091812;28;20058;-70
2022/05/03 06:17:10;;;;;;;2.78;1.83;;;15.60;55.70;;;;;;5090649;28;20091;-70
2022/05/03 06:19:37;;;;;;;2.35;1.90;;;15.10;55.30;;;;;;5090146;28;20048;-70
2022/05/03 06:22:05;;;;;;;2.40;2.00;;;15.30;55.30;;;;;;5091645;28;20058;-70
2022/05/03 06:24:32;;;;;;;2.40;1.70;;;15.90;52.50;;;;;;5088195;28;20052;-70
2022/05/03 06:26:59;;;;;;;2.20;1.80;;;15.60;55.30;;;;;;5089362;28;20404;-69
2022/05/03 06:29:26;;;;;;;2.00;1.60;;;15.90;55.80;;;;;;5089934;28;20083;-70
2022/05/03 06:31:53;;;;;;;2.53;1.70;;;15.50;55.70;;;;;;5090284;28;20063;-70
2022/05/03 06:34:20;;;;;;;2.58;1.80;;;15.50;55.30;;;;;;5090418;28;20129;-71
2022/05/03 06:36:49;;;;;;;2.22;1.73;;;15.90;55.60;;;;;;5093628;28;20055;-71
2022/05/03 06:39:17;;;;;;;2.97;1.77;;;16.00;49.00;;;;;;5094775;28;20060;-71
2022/05/03 06:41:44;;;;;;;3.05;1.65;;;15.90;55.50;;;;;;5093281;28;20046;-70
2022/05/03 06:44:10;;;;;;;4.20;1.75;;;16.00;53.40;;;;;;5094686;28;20084;-71
2022/05/03 06:46:38;;;;;;;2.42;1.73;;;16.10;55.50;;;;;;5102456;28;20135;-71
2022/05/03 06:49:04;;;;;;;2.13;1.70;;;16.20;53.30;;;;;;5106148;28;20119;-72
2022/05/03 06:51:31;;;;;;;8.40;3.80;;;15.50;55.40;;;;;;5113640;28;20053;-71
2022/05/03 06:53:58;;;;;;;5.50;3.13;;;15.50;55.40;;;;;;5114896;28;20054;-71
2022/05/03 06:56:26;;;;;;;3.42;2.75;;;16.30;53.20;;;;;;5114601;28;20059;-71
2022/05/03 06:58:53;;;;;;;5.88;2.95;;;16.20;56.00;;;;;;5101964;28;20054;-71
2022/05/03 07:01:19;;;;;;;4.72;2.50;;;16.20;55.90;;;;;;5104472;28;20121;-71
2022/05/03 07:03:46;;;;;;;3.47;2.50;;;16.20;55.70;;;;;;5104656;28;20067;-71
2022/05/03 07:06:18;;;;;;;3.47;2.10;;;16.90;56.00;;;;;;5104416;28;20047;-71
2022/05/03 07:08:45;;;;;;;3.25;2.13;;;16.40;55.50;;;;;;5111232;28;20048;-71
2022/05/03 07:11:12;;;;;;;2.58;1.90;;;16.30;55.60;;;;;;5114401;28;20051;-71
2022/05/03 07:13:40;;;;;;;3.35;2.10;;;17.10;56.00;;;;;;5101667;28;20077;-71
2022/05/03 07:16:07;;;;;;;3.58;1.85;;;16.40;55.50;;;;;;5075927;28;20063;-72
2022/05/03 07:24:02;;;;;;;1.98;1.70;;;15.70;55.00;;;;;;5128217;27;20063;-71
2022/05/03 07:26:28;;;;;;;3.05;1.98;;;16.60;55.30;;;;;;5093736;28;20048;-71
2022/05/03 07:28:57;;;;;;;3.22;1.92;;;16.50;55.10;;;;;;5093358;28;20412;-71
2022/05/03 07:31:24;;;;;;;4.57;1.75;;;16.50;55.40;;;;;;5093414;28;20062;-71
2022/05/03 07:33:51;;;;;;;3.28;1.80;;;16.70;55.30;;;;;;5093785;28;20074;-71
2022/05/03 07:36:19;;;;;;;1.73;1.52;;;16.60;48.80;;;;;;5094870;28;20058;-71
2022/05/03 07:38:46;;;;;;;3.42;1.88;;;16.80;55.30;;;;;;5093476;28;20058;-70
2022/05/03 07:41:12;;;;;;;3.85;1.80;;;16.60;54.90;;;;;;5093175;28;20048;-71
2022/05/03 07:43:40;;;;;;;1.80;1.60;;;16.20;54.60;;;;;;5094646;28;20127;-71
2022/05/03 07:46:08;;;;;;;1.83;1.55;;;16.10;54.70;;;;;;5087554;28;20052;-70
2022/05/03 07:48:35;;;;;;;2.20;1.73;;;17.10;55.00;;;;;;5073480;28;20053;-70
2022/05/03 07:51:01;;;;;;;2.35;1.60;;;17.40;55.20;;;;;;5072664;28;20055;-70
2022/05/03 07:53:28;;;;;;;2.83;1.83;;;15.80;54.50;;;;;;5074450;28;20621;-70
2022/05/03 07:55:55;;;;;;;2.47;1.80;;;16.00;54.50;;;;;;5072454;28;20059;-70
2022/05/03 07:58:22;;;;;;;2.65;1.83;;;16.70;54.90;;;;;;5073054;28;20258;-70
2022/05/03 08:00:49;;;;;;;4.22;1.50;;;16.80;55.30;;;;;;5073826;28;20052;-70
2022/05/03 08:03:17;;;;;;;2.05;1.60;;;17.00;55.00;;;;;;5083078;28;20056;-70
2022/05/03 08:05:44;;;;;;;3.13;1.60;;;16.90;49.40;;;;;;5082423;28;20092;-71
2022/05/03 08:08:10;;;;;;;3.92;1.60;;;16.60;54.70;;;;;;5073904;28;20053;-72
2022/05/03 08:10:37;;;;;;;2.95;1.70;;;16.30;54.50;;;;;;5072556;28;20057;-72
2022/05/03 08:13:04;;;;;;;2.30;1.60;;;16.50;55.00;;;;;;5072608;28;20052;-72
2022/05/03 08:15:31;;;;;;;3.70;1.65;;;16.80;55.50;;;;;;5106620;28;20429;-71
2022/05/03 08:17:57;;;;;;;2.78;1.85;;;17.50;55.40;;;;;;5073480;28;20155;-72
2022/05/03 08:20:25;;;;;;;2.72;1.73;;;17.40;55.20;;;;;;5072310;28;20060;-71
2022/05/03 08:22:52;;;;;;;4.05;1.67;;;17.10;55.20;;;;;;5073169;28;20056;-71
2022/05/03 08:25:19;;;;;;;3.22;1.60;;;17.20;55.00;;;;;;5092584;28;20070;-72
2022/05/03 08:27:46;;;;;;;3.28;1.60;;;17.40;55.20;;;;;;5092313;28;20054;-71
2022/05/03 08:30:13;;;;;;;2.42;1.55;;;17.20;54.80;;;;;;5093555;28;20062;-71
2022/05/03 08:32:39;;;;;;;4.32;1.80;;;17.20;54.90;;;;;;5092291;28;20098;-71
2022/05/03 08:35:06;;;;;;;3.90;1.63;;;17.20;54.90;;;;;;5089059;28;20058;-70
2022/05/03 08:43:04;;;;;;;3.03;1.65;;;17.30;50.40;;;;;;5073706;28;19970;-71
2022/05/03 08:45:32;;;;;;;2.60;1.73;;;16.40;54.50;;;;;;5105899;28;20135;-70
2022/05/03 08:48:00;;;;;;;4.72;1.70;;;17.40;55.00;;;;;;5091742;28;20113;-71
2022/05/03 08:50:27;;;;;;;3.50;1.90;;;17.70;54.70;;;;;;5100488;28;20590;-71
2022/05/03 08:52:58;;;;;;;3.08;1.50;;;17.50;51.10;;;;;;5102109;28;20058;-71
2022/05/03 08:55:25;;;;;;;3.15;1.67;;;17.50;54.90;;;;;;5102218;28;20059;-71
2022/05/03 08:57:52;;;;;;;2.78;1.60;;;17.40;54.70;;;;;;5100854;28;20056;-71
2022/05/03 09:00:19;;;;;;;2.80;1.50;;;17.50;54.50;;;;;;5101138;28;20480;-71
2022/05/03 09:02:47;;;;;;;3.10;1.52;;;18.00;55.10;;;;;;5100341;28;20052;-71
2022/05/03 09:05:14;;;;;;;2.88;1.73;;;17.40;54.80;;;;;;5100485;28;20062;-70
2022/05/03 09:07:44;;;;;;;3.95;1.50;;;17.70;54.80;;;;;;5104074;28;20119;-71
2022/05/03 09:10:18;;;;;;;2.33;1.70;;;17.40;54.90;;;;;;5099762;28;20073;-71
2022/05/03 09:12:45;;;;;;;3.20;1.65;;;18.00;55.00;;;;;;5103698;28;20113;-71
2022/05/03 09:15:12;;;;;;;2.67;1.70;;;17.00;54.30;;;;;;5101393;28;20111;-71
2022/05/03 09:17:40;;;;;;;4.90;1.73;;;16.60;54.20;;;;;;5101638;28;20101;-71
2022/05/03 09:25:42;;;;;;;4.95;1.80;;;17.50;54.80;;;;;;5091663;28;20492;-71
2022/05/03 09:28:09;;;;;;;4.82;2.10;;;17.30;55.10;;;;;;5071183;28;20406;-71
2022/05/03 09:30:36;;;;;;;7.00;2.13;;;17.40;54.70;;;;;;5104807;28;20048;-71
2022/05/03 09:33:03;;;;;;;2.75;1.67;;;17.50;55.00;;;;;;5071012;28;20060;-72
2022/05/03 09:35:33;;;;;;;3.55;1.83;;;17.20;54.80;;;;;;5105051;28;20485;-71
2022/05/03 09:38:03;;;;;;;4.65;1.65;;;17.50;54.60;;;;;;5071239;28;20143;-71
2022/05/03 09:40:30;;;;;;;4.07;1.90;;;17.40;54.70;;;;;;5079580;28;20059;-71
2022/05/03 09:42:58;;;;;;;4.68;1.77;;;17.60;54.90;;;;;;5091180;28;20056;-72
2022/05/03 09:45:26;;;;;;;2.70;1.58;;;17.40;49.20;;;;;;5091073;28;20063;-72
2022/05/03 09:47:53;;;;;;;5.03;1.80;;;17.50;55.20;;;;;;5090685;28;20060;-72
2022/05/03 09:50:38;;;;;;;5.47;2.17;;;17.20;54.50;;;;;;5090852;28;20056;-70
2022/05/03 09:53:09;;;;;;;4.35;1.77;;;17.30;55.30;;;;;;5091321;28;20056;-71
2022/05/03 09:55:37;;;;;;;5.82;2.30;;;18.00;55.60;;;;;;5122143;27;20518;-70
2022/05/03 09:58:06;;;;;;;7.15;2.20;;;17.50;55.40;;;;;;5104601;28;20057;-70
2022/05/03 10:00:34;;;;;;;6.00;2.17;;;;;;;;;;5103827;28;20060;-71
2022/05/03 10:03:01;;;;;;;5.20;2.17;;;16.30;55.10;;;;;;5070537;28;20065;-70
2022/05/03 10:05:27;;;;;;;5.35;2.42;;;17.30;56.00;;;;;;5071684;28;20055;-70
2022/05/03 10:07:55;;;;;;;8.05;2.72;;;17.90;56.20;;;;;;5104608;28;20055;-70
2022/05/03 10:10:22;;;;;;;5.22;2.30;;;17.80;56.30;;;;;;5070772;28;20045;-70
2022/05/03 10:12:50;;;;;;;7.47;2.40;;;16.20;55.10;;;;;;5081121;28;20810;-70
2022/05/03 10:20:50;;;;;;;6.37;2.50;;;16.70;55.60;;;;;;5070162;28;20127;-70
2022/05/03 10:23:21;;;;;;;5.28;2.22;;;17.30;56.10;;;;;;5104630;28;20456;-70
2022/05/03 10:25:55;;;;;;;6.68;2.55;;;17.40;55.90;;;;;;5071024;28;20088;-71
2022/05/03 10:28:22;;;;;;;6.72;2.83;;;17.30;55.80;;;;;;5112725;28;20055;-71
2022/05/03 10:31:09;;;;;;;8.70;2.40;;;17.40;55.80;;;;;;5089401;28;20048;-71
2022/05/03 10:33:45;;;;;;;5.60;2.15;;;17.40;55.70;;;;;;5088515;28;20062;-71
2022/05/03 10:36:42;;;;;;;6.95;2.10;;;17.30;55.60;;;;;;5090559;28;20044;-71
2022/05/03 10:39:22;;;;;;;4.72;2.40;;;17.50;55.60;;;;;;5090820;28;20405;-71
2022/05/03 10:41:53;;;;;;;6.68;2.45;;;17.80;55.70;;;;;;5089968;28;20048;-71
2022/05/03 10:44:39;;;;;;;7.38;2.92;;;17.30;50.20;;;;;;5090618;28;20052;-71
2022/05/03 10:47:07;;;;;;;4.97;2.50;;;17.40;55.70;;;;;;5115551;28;20064;-71
2022/05/03 10:49:34;;;;;;;5.25;2.30;;;17.70;55.90;;;;;;5103879;28;20410;-72
2022/05/03 10:52:01;;;;;;;5.20;2.60;;;16.50;53.60;;;;;;5070025;28;20059;-72
2022/05/03 10:54:29;;;;;;;3.63;2.42;;;16.40;54.90;;;;;;5103971;28;20052;-71
2022/05/03 10:57:03;;;;;;;3.15;1.85;;;17.60;55.60;;;;;;5070002;28;20145;-71
2022/05/03 10:59:46;;;;;;;4.78;2.35;;;17.20;55.80;;;;;;5069955;28;20485;-71
2022/05/03 11:02:14;;;;;;;5.38;2.17;;;17.20;55.40;;;;;;5071179;28;20051;-70
2022/05/03 11:05:12;;;;;;;5.72;2.53;;;16.90;55.10;;;;;;5069958;28;20056;-70
2022/05/03 11:07:39;;;;;;;6.28;2.40;;;17.40;49.60;;;;;;5083654;28;20056;-71
2022/05/03 11:10:40;;;;;;;5.40;2.25;;;17.60;55.00;;;;;;5096493;28;20047;-69
2022/05/03 11:13:21;;;;;;;5.30;2.40;;;17.40;55.10;;;;;;5095471;28;20062;-70
2022/05/03 11:16:22;;;;;;;4.63;2.33;;;17.40;55.10;;;;;;5094532;28;20059;-70
2022/05/03 11:18:50;;;;;;;4.95;2.25;;;18.20;55.50;;;;;;5095091;28;20480;-71
2022/05/03 11:21:17;;;;;;;5.80;2.50;;;16.40;54.50;;;;;;5102602;28;20408;-71
2022/05/03 11:23:50;;;;;;;3.92;2.45;;;17.80;55.40;;;;;;5100221;28;20050;-70
2022/05/03 11:26:18;;;;;;;5.85;2.17;;;17.60;55.30;;;;;;5102525;28;20396;-71
2022/05/03 11:28:46;;;;;;;5.93;2.40;;;17.60;55.90;;;;;;5104289;28;20052;-70
2022/05/03 11:31:13;;;;;;;3.53;2.10;;;16.50;54.40;;;;;;5103568;28;20048;-70
2022/05/03 11:33:50;;;;;;;6.82;2.50;;;16.50;54.50;;;;;;5099334;28;20055;-70
2022/05/03 11:36:17;;;;;;;4.88;2.20;;;17.70;55.10;;;;;;5104358;28;20151;-71
2022/05/03 11:38:44;;;;;;;8.07;2.53;;;17.50;55.30;;;;;;5094619;28;20040;-70
2022/05/03 11:41:10;;;;;;;4.88;2.30;;;18.20;55.50;;;;;;5093474;28;20075;-70
2022/05/03 11:43:37;;;;;;;4.45;2.17;;;17.70;55.10;;;;;;5100764;28;20564;-69
2022/05/03 11:46:04;;;;;;;5.78;2.30;;;17.60;55.20;;;;;;5102147;28;20048;-70
2022/05/03 11:48:30;;;;;;;6.00;2.30;;;17.50;54.80;;;;;;5103508;28;20396;-69
2022/05/03 11:56:27;;;;;;;4.45;2.10;;;16.90;54.30;;;;;;5119745;27;20131;-70
2022/05/03 11:58:54;;;;;;;4.47;1.90;;;17.40;54.90;;;;;;5094191;28;20044;-70
2022/05/03 12:01:21;;;;;;;6.47;2.30;;;17.60;55.10;;;;;;5093550;28;20047;-74
2022/05/03 12:03:49;;;;;;;5.30;2.20;;;17.60;55.00;;;;;;5093096;28;20052;-71
2022/05/03 12:06:17;;;;;;;5.65;2.10;;;16.70;54.70;;;;;;5092503;28;20054;-69
2022/05/03 12:08:44;;;;;;;6.65;2.47;;;17.30;55.00;;;;;;5086357;28;20076;-72
2022/05/03 12:11:19;;;;;;;5.07;2.40;;;17.60;55.10;;;;;;5092355;28;20060;-72
2022/05/03 12:13:45;;;;;;;6.05;2.40;;;17.10;54.50;;;;;;5094042;28;20409;-72
2022/05/03 12:16:15;;;;;;;6.63;2.28;;;17.80;54.90;;;;;;5092832;28;20066;-72
2022/05/03 12:18:43;;;;;;;5.60;2.03;;;17.40;55.00;;;;;;5092909;28;20062;-72
2022/05/03 12:21:11;;;;;;;4.15;1.95;;;17.40;54.90;;;;;;5091873;28;20139;-72
2022/05/03 12:23:41;;;;;;;4.70;2.10;;;17.80;55.10;;;;;;5092126;28;20114;-72
2022/05/03 12:26:16;;;;;;;4.65;2.42;;;16.70;54.40;;;;;;5092749;28;20134;-72
2022/05/03 12:28:46;;;;;;;6.15;2.50;;;17.60;54.70;;;;;;5093698;28;20044;-73
2022/05/03 12:31:16;;;;;;;3.03;1.83;;;17.60;49.50;;;;;;5091941;28;20052;-71
2022/05/03 12:33:43;;;;;;;5.03;2.08;;;17.70;55.00;;;;;;5119655;27;20056;-72
2022/05/03 12:36:10;;;;;;;4.50;2.10;;;17.40;55.70;;;;;;5090914;28;20092;-71
2022/05/03 12:38:48;;;;;;;3.78;2.08;;;17.40;54.70;;;;;;5089984;28;20425;-71
2022/05/03 12:41:22;;;;;;;3.67;2.13;;;17.90;55.00;;;;;;5069116;28;20060;-71
2022/05/03 12:43:59;;;;;;;7.63;2.07;;;16.50;54.20;;;;;;5071829;28;20045;-71
2022/05/03 12:46:27;;;;;;;4.45;2.28;;;16.80;54.70;;;;;;5070620;28;20408;-71
2022/05/03 12:48:54;;;;;;;5.32;2.10;;;17.60;54.40;;;;;;5070452;28;20053;-71
2022/05/03 12:51:21;;;;;;;5.70;2.17;;;17.80;54.30;;;;;;5070211;28;20139;-71
2022/05/03 12:53:49;;;;;;;3.00;2.00;;;17.70;54.60;;;;;;5073264;28;20055;-71
2022/05/03 12:59:00;;;;;;;5.45;2.10;;;17.40;54.40;;;;;;5105660;28;20135;-71
2022/05/03 13:01:27;;;;;;;3.47;1.83;;;17.60;54.40;;;;;;5104836;28;20427;-71
2022/05/03 13:03:54;;;;;;;5.38;1.85;;;18.00;54.40;;;;;;5079469;28;20058;-71
2022/05/03 13:06:20;;;;;;;3.65;2.00;;;17.60;54.30;;;;;;5091921;28;20063;-71
2022/05/03 13:08:50;;;;;;;3.55;2.15;;;17.70;54.00;;;;;;5091974;28;20060;-70
2022/05/03 13:11:17;;;;;;;2.72;1.60;;;17.50;54.40;;;;;;5092835;28;20051;-70
2022/05/03 13:13:44;;;;;;;2.85;2.03;;;18.10;54.50;;;;;;5093192;28;20059;-70
2022/05/03 13:16:10;;;;;;;3.08;2.00;;;17.50;51.70;;;;;;5091670;28;20054;-70
2022/05/03 13:18:37;;;;;;;3.70;1.73;;;17.60;55.20;;;;;;5092969;28;20101;-70
2022/05/03 13:21:04;;;;;;;3.35;1.90;;;17.60;49.10;;;;;;5089762;28;20123;-71
2022/05/03 13:23:30;;;;;;;2.72;1.90;;;17.60;54.40;;;;;;5091091;28;20382;-70
2022/05/03 13:25:58;;;;;;;2.90;1.70;;;17.80;54.30;;;;;;5092511;28;20047;-70
2022/05/03 13:28:25;;;;;;;2.58;1.60;;;17.10;54.10;;;;;;5091502;28;20051;-71
2022/05/03 13:30:52;;;;;;;4.10;1.90;;;17.40;54.10;;;;;;5091003;28;20404;-71
2022/05/03 13:33:18;;;;;;;3.15;1.80;;;17.90;54.60;;;;;;5092625;28;20044;-71
2022/05/03 13:41:15;;;;;;;2.45;1.67;;;17.40;53.90;;;;;;5125055;27;20492;-71
2022/05/03 13:43:41;;;;;;;3.75;1.67;;;17.60;54.60;;;;;;5091019;28;20054;-71
2022/05/03 13:46:08;;;;;;;3.60;1.80;;;18.40;54.60;;;;;;5092121;28;20051;-71